Time;durP1;ratioP1;P1;durP2;ratioP2;P2;SDS_P1;SDS_P2;PMS_P1;PMS_P2;Temp;Humidity;BMP_temperature;BMP_pressure;BME280_temperature;BME280_humidity;BME280_pressure;Samples;Min_cycle;Max_cycle;Signal;HPM_P1;HPM_P2
2022/02/17 00:00:29;;;;;;;;;;;13.20;55.60;;;;;;5164087;27;19903;-71
2022/02/17 00:02:55;;;;;;;;;;;13.30;55.60;;;;;;5163999;27;19972;-70
2022/02/17 00:05:21;;;;;;;;;;;13.20;55.60;;;;;;5163985;27;19994;-71
2022/02/17 00:07:48;;;;;;;;;;;13.30;55.60;;;;;;5163933;27;19955;-72
2022/02/17 00:10:14;;;;;;;;;;;13.30;55.60;;;;;;5163666;27;19923;-70
2022/02/17 00:12:40;;;;;;;;;;;13.30;55.50;;;;;;5163916;27;19978;-70
2022/02/17 00:15:06;;;;;;;;;;;13.30;55.60;;;;;;5163748;27;19918;-70
2022/02/17 00:17:31;;;;;;;;;;;13.30;55.60;;;;;;5163855;27;19911;-69
2022/02/17 00:19:57;;;;;;;;;;;13.20;55.50;;;;;;5145084;27;19911;-70
2022/02/17 00:22:23;;;;;;;;;;;13.20;55.60;;;;;;5163671;27;19982;-70
2022/02/17 00:24:49;;;;;;;;;;;13.20;55.60;;;;;;5144989;27;19949;-70
2022/02/17 00:27:14;;;;;;;;;;;13.20;55.60;;;;;;5163620;27;19910;-70
2022/02/17 00:29:40;;;;;;;;;;;13.20;55.50;;;;;;5163420;27;19923;-69
2022/02/17 00:32:06;;;;;;;;;;;13.20;55.50;;;;;;5163439;27;19937;-69
2022/02/17 00:34:32;;;;;;;;;;;13.20;55.50;;;;;;5163293;27;19915;-70
2022/02/17 00:36:58;;;;;;;;;;;13.20;55.60;;;;;;5163289;27;19942;-70
2022/02/17 00:39:23;;;;;;;;;;;13.30;55.60;;;;;;5163259;27;19911;-70
2022/02/17 00:41:50;;;;;;;;;;;13.30;55.60;;;;;;5163200;27;20227;-70
2022/02/17 00:44:15;;;;;;;;;;;13.20;55.50;;;;;;5163120;27;20009;-70
2022/02/17 00:46:41;;;;;;;;;;;13.20;55.50;;;;;;5163134;27;20222;-70
2022/02/17 00:49:07;;;;;;;;;;;13.20;55.50;;;;;;5163004;27;19990;-70
2022/02/17 00:51:33;;;;;;;;;;;13.20;55.60;;;;;;5163043;27;20107;-71
2022/02/17 00:53:59;;;;;;;;;;;13.20;55.50;;;;;;5162974;27;19911;-70
2022/02/17 00:56:25;;;;;;;;;;;13.20;55.50;;;;;;5144077;27;19911;-70
2022/02/17 00:58:50;;;;;;;;;;;13.20;55.60;;;;;;5162871;27;19939;-70
2022/02/17 01:01:16;;;;;;;;;;;13.20;55.60;;;;;;5162802;27;19903;-70
2022/02/17 01:03:41;;;;;;;;;;;13.20;55.60;;;;;;5162721;27;19911;-70
2022/02/17 01:06:07;;;;;;;;;;;13.20;55.60;;;;;;5162759;27;20115;-70
2022/02/17 01:08:33;;;;;;;;;;;13.20;55.50;;;;;;5162565;27;19956;-70
2022/02/17 01:10:58;;;;;;;;;;;13.20;55.50;;;;;;5162518;27;19950;-70
2022/02/17 01:13:24;;;;;;;;;;;13.20;55.60;;;;;;5162562;27;19990;-70
2022/02/17 01:15:50;;;;;;;;;;;13.20;55.50;;;;;;5162443;27;19991;-70
2022/02/17 01:18:16;;;;;;;;;;;13.20;55.50;;;;;;5162485;27;19986;-70
2022/02/17 01:20:42;;;;;;;;;;;13.20;55.50;;;;;;5162466;27;20006;-70
2022/02/17 01:23:08;;;;;;;;;;;13.20;55.60;;;;;;5162318;27;19911;-71
2022/02/17 01:25:34;;;;;;;;;;;13.20;55.60;;;;;;5162326;27;19911;-70
2022/02/17 01:28:00;;;;;;;;;;;13.20;55.60;;;;;;5162308;27;19939;-70
2022/02/17 01:30:26;;;;;;;;;;;13.20;55.60;;;;;;5162150;27;19915;-71
2022/02/17 01:32:51;;;;;;;;;;;13.20;55.50;;;;;;5162246;27;20024;-71
2022/02/17 01:35:17;;;;;;;;;;;13.20;55.50;;;;;;5162382;27;19918;-70
2022/02/17 01:37:42;;;;;;;;;;;13.20;55.60;;;;;;5162095;27;19934;-70
2022/02/17 01:40:09;;;;;;;;;;;13.20;55.60;;;;;;5162089;27;19918;-70
2022/02/17 01:42:34;;;;;;;;;;;13.20;55.50;;;;;;5162058;27;19904;-70
2022/02/17 01:45:04;;;;;;;;;;;13.20;55.50;;;;;;5162039;27;19998;-70
2022/02/17 01:47:29;;;;;;;;;;;13.20;55.50;;;;;;5162024;27;19907;-68
2022/02/17 01:49:55;;;;;;;;;;;13.20;55.50;;;;;;5161866;27;19915;-69
2022/02/17 01:52:20;;;;;;;;;;;13.20;55.40;;;;;;5161864;27;19993;-71
2022/02/17 01:54:47;;;;;;;;;;;13.20;55.60;;;;;;5161837;27;19934;-69
2022/02/17 01:57:15;;;;;;;;;;;13.20;55.60;;;;;;5161763;27;19919;-69
2022/02/17 01:59:41;;;;;;;;;;;13.10;55.50;;;;;;5143144;27;20141;-69
2022/02/17 02:02:07;;;;;;;;;;;13.20;55.50;;;;;;5161740;27;19944;-69
2022/02/17 02:04:32;;;;;;;;;;;13.10;55.50;;;;;;5161756;27;19919;-70
2022/02/17 02:06:58;;;;;;;;;;;13.10;55.50;;;;;;5160977;27;19903;-70
2022/02/17 02:09:24;;;;;;;;;;;13.20;55.50;;;;;;5142849;27;20063;-70
2022/02/17 02:11:49;;;;;;;;;;;13.20;55.50;;;;;;5161223;27;19903;-70
2022/02/17 02:14:16;;;;;;;;;;;13.20;55.50;;;;;;5142955;27;19942;-70
2022/02/17 02:16:42;;;;;;;;;;;13.20;55.60;;;;;;5161524;27;19911;-70
2022/02/17 02:19:08;;;;;;;;;;;13.10;55.50;;;;;;5161479;27;19911;-70
2022/02/17 02:21:33;;;;;;;;;;;13.20;55.60;;;;;;5161392;27;19911;-70
2022/02/17 02:24:00;;;;;;;;;;;13.10;55.40;;;;;;5161426;27;20176;-69
2022/02/17 02:26:27;;;;;;;;;;;13.10;55.40;;;;;;5142877;27;19911;-70
2022/02/17 02:28:53;;;;;;;;;;;13.20;55.60;;;;;;5161323;27;20200;-70
2022/02/17 02:31:19;;;;;;;;;;;13.10;55.50;;;;;;5161393;27;19927;-70
2022/02/17 02:33:45;;;;;;;;;;;13.10;55.50;;;;;;5161349;27;19934;-69
2022/02/17 02:36:10;;;;;;;;;;;13.10;55.50;;;;;;5161671;27;19934;-70
2022/02/17 02:38:36;;;;;;;;;;;13.10;55.50;;;;;;5161265;27;19944;-69
2022/02/17 02:41:02;;;;;;;;;;;13.10;55.50;;;;;;5161257;27;19911;-70
2022/02/17 02:43:27;;;;;;;;;;;13.10;55.50;;;;;;5161276;27;20141;-69
2022/02/17 02:45:53;;;;;;;;;;;13.20;55.60;;;;;;5161248;27;19911;-70
2022/02/17 02:48:19;;;;;;;;;;;13.10;55.50;;;;;;5161116;27;19918;-70
2022/02/17 02:50:45;;;;;;;;;;;13.10;55.50;;;;;;5161232;27;19903;-69
2022/02/17 02:53:19;;;;;;;;;;;13.20;55.50;;;;;;5161137;27;19979;-70
2022/02/17 02:55:46;;;;;;;;;;;13.10;55.50;;;;;;5161164;27;19911;-70
2022/02/17 02:58:12;;;;;;;;;;;13.10;55.50;;;;;;5161145;27;19919;-69
2022/02/17 03:00:39;;;;;;;;;;;13.10;55.50;;;;;;5161103;27;20424;-71
2022/02/17 03:03:04;;;;;;;;;;;13.10;55.40;;;;;;5161079;27;20275;-69
2022/02/17 03:05:30;;;;;;;;;;;13.10;55.40;;;;;;5161107;27;19911;-69
2022/02/17 03:07:56;;;;;;;;;;;13.10;55.50;;;;;;5160934;27;19918;-68
2022/02/17 03:10:21;;;;;;;;;;;13.10;55.40;;;;;;5161118;27;19923;-69
2022/02/17 03:12:47;;;;;;;;;;;13.10;55.40;;;;;;5160974;27;19912;-69
2022/02/17 03:15:12;;;;;;;;;;;13.10;55.50;;;;;;5160939;27;20223;-69
2022/02/17 03:17:38;;;;;;;;;;;13.10;55.50;;;;;;5161630;27;19955;-69
2022/02/17 03:20:07;;;;;;;;;;;13.10;55.50;;;;;;5164770;27;19943;-70
2022/02/17 03:22:37;;;;;;;;;;;13.10;55.50;;;;;;5164681;27;20234;-71
2022/02/17 03:25:04;;;;;;;;;;;13.10;55.50;;;;;;5164728;27;20118;-69
2022/02/17 03:27:29;;;;;;;;;;;13.10;55.50;;;;;;5164767;27;19956;-69
2022/02/17 03:29:55;;;;;;;;;;;13.10;55.50;;;;;;5164498;27;20227;-71
2022/02/17 03:32:21;;;;;;;;;;;13.10;55.50;;;;;;5164625;27;20429;-69
2022/02/17 03:34:46;;;;;;;;;;;13.10;55.50;;;;;;5164512;27;19911;-69
2022/02/17 03:37:12;;;;;;;;;;;13.10;55.50;;;;;;5164576;27;19974;-70
2022/02/17 03:39:37;;;;;;;;;;;13.10;55.50;;;;;;5164431;27;19946;-70
2022/02/17 03:42:04;;;;;;;;;;;13.10;55.50;;;;;;5164443;27;19919;-70
2022/02/17 03:44:29;;;;;;;;;;;13.10;55.50;;;;;;5164393;27;19903;-70
2022/02/17 03:46:55;;;;;;;;;;;13.00;55.50;;;;;;5164302;27;19911;-69
2022/02/17 03:49:21;;;;;;;;;;;13.00;55.50;;;;;;5164185;27;19989;-69
2022/02/17 03:51:46;;;;;;;;;;;13.00;55.50;;;;;;5164180;27;19942;-69
2022/02/17 03:54:12;;;;;;;;;;;13.10;55.50;;;;;;5164181;27;19911;-69
2022/02/17 03:56:38;;;;;;;;;;;13.00;55.50;;;;;;5164074;27;19915;-69
2022/02/17 03:59:04;;;;;;;;;;;13.10;55.50;;;;;;5164211;27;19982;-69
2022/02/17 04:01:34;;;;;;;;;;;13.00;55.50;;;;;;5164121;27;19907;-70
2022/02/17 04:04:01;;;;;;;;;;;13.10;55.50;;;;;;5164022;27;19911;-69
2022/02/17 04:06:26;;;;;;;;;;;13.10;55.50;;;;;;5145347;27;19948;-70
2022/02/17 04:08:52;;;;;;;;;;;13.10;55.50;;;;;;5163629;27;19993;-70
2022/02/17 04:11:18;;;;;;;;;;;13.10;55.40;;;;;;5163856;27;19919;-70
2022/02/17 04:13:44;;;;;;;;;;;13.10;55.50;;;;;;5163781;27;19911;-69
2022/02/17 04:16:09;;;;;;;;;;;13.00;55.50;;;;;;5163827;27;20132;-69
2022/02/17 04:18:35;;;;;;;;;;;13.00;55.50;;;;;;5163997;27;19946;-69
2022/02/17 04:21:00;;;;;;;;;;;13.00;55.50;;;;;;5163738;27;19997;-69
2022/02/17 04:23:26;;;;;;;;;;;13.00;55.50;;;;;;5163586;27;20206;-70
2022/02/17 04:25:52;;;;;;;;;;;13.10;55.50;;;;;;5163563;27;20397;-70
2022/02/17 04:28:17;;;;;;;;;;;13.00;55.40;;;;;;5163502;27;19918;-70
2022/02/17 04:30:43;;;;;;;;;;;13.00;55.50;;;;;;5162702;27;19971;-70
2022/02/17 04:33:08;;;;;;;;;;;13.00;55.50;;;;;;5163442;27;19911;-72
2022/02/17 04:35:34;;;;;;;;;;;13.00;55.50;;;;;;5163342;27;19907;-69
2022/02/17 04:38:00;;;;;;;;;;;13.00;55.50;;;;;;5163359;27;19946;-70
2022/02/17 04:43:09;;;;;;;;;;;13.00;55.50;;;;;;5163270;27;20209;-69
2022/02/17 04:45:35;;;;;;;;;;;13.00;55.50;;;;;;5163128;27;19911;-69
2022/02/17 04:48:05;;;;;;;;;;;13.00;55.50;;;;;;5163073;27;19994;-69
2022/02/17 04:50:30;;;;;;;;;;;13.00;55.50;;;;;;5163093;27;20352;-70
2022/02/17 04:52:56;;;;;;;;;;;13.00;55.50;;;;;;5162976;27;19911;-70
2022/02/17 04:55:22;;;;;;;;;;;13.00;55.50;;;;;;5162983;27;19918;-69
2022/02/17 04:57:47;;;;;;;;;;;13.00;55.50;;;;;;5162929;27;19911;-69
2022/02/17 05:00:13;;;;;;;;;;;13.00;55.50;;;;;;5162913;27;19918;-69
2022/02/17 05:02:39;;;;;;;;;;;13.00;55.60;;;;;;5162779;27;20187;-69
2022/02/17 05:05:05;;;;;;;;;;;13.00;55.50;;;;;;5144146;27;19914;-69
2022/02/17 05:07:30;;;;;;;;;;;13.00;55.50;;;;;;5162650;27;19911;-69
2022/02/17 05:09:56;;;;;;;;;;;13.00;55.50;;;;;;5162415;27;19923;-68
2022/02/17 05:12:22;;;;;;;;;;;13.00;55.50;;;;;;5162609;27;19911;-69
2022/02/17 05:14:47;;;;;;;;;;;13.00;55.50;;;;;;5144036;27;19934;-69
2022/02/17 05:17:13;;;;;;;;;;;13.00;55.50;;;;;;5162453;27;19911;-69
2022/02/17 05:19:38;;;;;;;;;;;13.00;55.50;;;;;;5143849;27;19990;-69
2022/02/17 05:22:04;;;;;;;;;;;13.00;55.50;;;;;;5162367;27;19925;-69
2022/02/17 05:24:30;;;;;;;;;;;13.00;55.40;;;;;;5162439;27;19953;-69
2022/02/17 05:26:55;;;;;;;;;;;13.00;55.50;;;;;;5162345;27;20222;-69
2022/02/17 05:29:21;;;;;;;;;;;13.00;55.40;;;;;;5162277;27;19974;-70
2022/02/17 05:31:47;;;;;;;;;;;13.00;55.50;;;;;;5162250;27;20110;-69
2022/02/17 05:34:12;;;;;;;;;;;13.00;55.40;;;;;;5162234;27;19970;-69
2022/02/17 05:36:40;;;;;;;;;;;13.00;55.50;;;;;;5162209;27;19979;-70
2022/02/17 05:39:06;;;;;;;;;;;13.00;55.40;;;;;;5162119;27;19943;-69
2022/02/17 05:41:32;;;;;;;;;;;12.90;55.40;;;;;;5161248;27;20358;-70
2022/02/17 05:43:57;;;;;;;;;;;13.00;55.40;;;;;;5162052;27;19911;-68
2022/02/17 05:46:23;;;;;;;;;;;13.00;55.50;;;;;;5161989;27;19915;-69
2022/02/17 05:48:49;;;;;;;;;;;13.00;55.40;;;;;;5143378;27;20214;-69
2022/02/17 05:51:17;;;;;;;;;;;13.00;56.00;;;;;;5161935;27;19979;-70
2022/02/17 05:53:43;;;;;;;;;;;12.90;55.40;;;;;;5161916;27;19911;-69
2022/02/17 05:56:09;;;;;;;;;;;13.00;55.50;;;;;;5161833;27;19919;-70
2022/02/17 05:58:34;;;;;;;;;;;13.00;55.40;;;;;;5161843;27;19962;-69
2022/02/17 06:01:00;;;;;;;;;;;12.90;55.40;;;;;;5161819;27;19911;-70
2022/02/17 06:03:26;;;;;;;;;;;12.90;55.40;;;;;;5161709;27;19950;-69
2022/02/17 06:05:52;;;;;;;;;;;12.90;55.50;;;;;;5161713;27;19911;-69
2022/02/17 06:08:17;;;;;;;;;;;12.90;55.40;;;;;;5161754;27;19915;-69
2022/02/17 06:10:43;;;;;;;;;;;13.00;55.50;;;;;;5161441;27;20235;-69
2022/02/17 06:13:09;;;;;;;;;;;12.90;55.50;;;;;;5161660;27;19903;-69
2022/02/17 06:15:36;;;;;;;;;;;12.90;55.40;;;;;;5161612;27;19950;-69
2022/02/17 06:18:02;;;;;;;;;;;12.90;55.40;;;;;;5161547;27;19956;-70
2022/02/17 06:20:28;;;;;;;;;;;12.90;55.50;;;;;;5161589;27;19911;-69
2022/02/17 06:22:53;;;;;;;;;;;12.90;55.60;;;;;;5161531;27;19911;-70
2022/02/17 06:25:19;;;;;;;;;;;12.90;55.40;;;;;;5161540;27;19917;-69
2022/02/17 06:27:45;;;;;;;;;;;12.90;55.40;;;;;;5161435;27;19903;-70
2022/02/17 06:30:11;;;;;;;;;;;12.90;55.50;;;;;;5161486;27;19986;-69
2022/02/17 06:32:43;;;;;;;;;;;12.90;55.40;;;;;;5161362;27;20191;-70
2022/02/17 06:35:09;;;;;;;;;;;12.90;55.40;;;;;;5161499;27;19942;-70
2022/02/17 06:37:34;;;;;;;;;;;12.90;55.40;;;;;;5161344;27;19910;-69
2022/02/17 06:40:00;;;;;;;;;;;12.90;55.40;;;;;;5161408;27;19942;-69
2022/02/17 06:42:25;;;;;;;;;;;12.90;56.00;;;;;;5161300;27;20115;-70
2022/02/17 06:44:51;;;;;;;;;;;12.90;55.50;;;;;;5161396;27;19910;-70
2022/02/17 06:47:17;;;;;;;;;;;12.90;55.40;;;;;;5161228;27;19942;-68
2022/02/17 06:49:42;;;;;;;;;;;12.90;55.40;;;;;;5161227;27;19915;-69
2022/02/17 06:52:08;;;;;;;;;;;12.90;55.50;;;;;;5161269;27;20219;-70
2022/02/17 06:54:33;;;;;;;;;;;12.90;55.40;;;;;;5165286;27;19934;-70
2022/02/17 06:56:59;;;;;;;;;;;12.90;55.50;;;;;;5165329;27;19910;-70
2022/02/17 06:59:25;;;;;;;;;;;12.90;55.40;;;;;;5165314;27;19919;-69
2022/02/17 07:01:50;;;;;;;;;;;12.90;55.50;;;;;;5165296;27;20203;-71
2022/02/17 07:04:16;;;;;;;;;;;12.90;55.40;;;;;;5165203;27;19964;-69
2022/02/17 07:06:42;;;;;;;;;;;13.00;55.50;;;;;;5165237;27;20397;-69
2022/02/17 07:09:08;;;;;;;;;;;12.90;55.40;;;;;;5164932;27;19914;-69
2022/02/17 07:11:34;;;;;;;;;;;12.90;55.40;;;;;;5165123;27;19986;-69
2022/02/17 07:13:59;;;;;;;;;;;12.90;55.40;;;;;;5165082;27;19910;-70
2022/02/17 07:16:25;;;;;;;;;;;13.00;55.50;;;;;;5165019;27;19911;-70
2022/02/17 07:18:51;;;;;;;;;;;12.90;55.40;;;;;;5146372;27;20106;-70
2022/02/17 07:21:16;;;;;;;;;;;12.90;55.40;;;;;;5164887;27;19906;-70
2022/02/17 07:23:42;;;;;;;;;;;12.90;55.40;;;;;;5164868;27;19915;-70
2022/02/17 07:26:07;;;;;;;;;;;12.90;55.40;;;;;;5164793;27;19918;-70
2022/02/17 07:28:34;;;;;;;;;;;12.90;55.40;;;;;;5164650;27;19918;-68
2022/02/17 07:31:00;;;;;;;;;;;12.90;55.40;;;;;;5164728;27;19953;-69
2022/02/17 07:33:25;;;;;;;;;;;12.90;55.40;;;;;;5164535;27;20220;-69
2022/02/17 07:35:51;;;;;;;;;;;12.90;55.30;;;;;;5164614;27;19918;-73
2022/02/17 07:38:16;;;;;;;;;;;12.90;55.60;;;;;;5164494;27;20231;-70
2022/02/17 07:40:42;;;;;;;;;;;12.90;55.80;;;;;;5164752;27;19915;-72
2022/02/17 07:43:09;;;;;;;;;;;12.90;56.00;;;;;;5164415;27;19918;-70
2022/02/17 07:45:35;;;;;;;;;;;12.80;55.80;;;;;;5164428;27;19903;-69
2022/02/17 07:48:00;;;;;;;;;;;12.70;56.30;;;;;;5164519;27;19942;-71
2022/02/17 07:50:27;;;;;;;;;;;12.30;57.50;;;;;;5164256;27;19907;-70
2022/02/17 07:52:56;;;;;;;;;;;12.40;57.80;;;;;;5164251;27;19974;-71
2022/02/17 07:55:21;;;;;;;;;;;12.50;57.60;;;;;;5164249;27;19911;-71
2022/02/17 07:57:47;;;;;;;;;;;12.60;57.50;;;;;;5164124;27;19911;-70
2022/02/17 08:00:13;;;;;;;;;;;12.70;57.10;;;;;;5164121;27;19934;-71
2022/02/17 08:02:41;;;;;;;;;;;12.70;56.80;;;;;;5164200;27;19911;-71
2022/02/17 08:05:07;;;;;;;;;;;12.90;57.30;;;;;;5162950;27;19918;-72
2022/02/17 08:07:32;;;;;;;;;;;12.90;56.70;;;;;;5164010;27;19910;-71
2022/02/17 08:09:58;;;;;;;;;;;12.90;56.60;;;;;;5145166;27;19922;-71
2022/02/17 08:12:26;;;;;;;;;;;12.90;56.50;;;;;;5163098;27;21274;-70
2022/02/17 08:14:52;;;;;;;;;;;12.90;56.50;;;;;;5163858;27;19915;-69
2022/02/17 08:17:18;;;;;;;;;;;13.00;56.40;;;;;;5163815;27;19911;-69
2022/02/17 08:19:43;;;;;;;;;;;13.10;57.20;;;;;;5163782;27;19946;-70
2022/02/17 08:22:09;;;;;;;;;;;13.10;56.90;;;;;;5163752;27;19910;-69
2022/02/17 08:24:35;;;;;;;;;;;13.20;56.90;;;;;;5163672;27;19911;-69
2022/02/17 08:27:00;;;;;;;;;;;13.20;56.80;;;;;;5163642;27;19912;-68
2022/02/17 08:29:26;;;;;;;;;;;13.00;56.40;;;;;;5163456;27;19978;-69
2022/02/17 08:31:52;;;;;;;;;;;13.00;57.10;;;;;;5163999;27;19908;-69
2022/02/17 08:34:18;;;;;;;;;;;13.10;57.00;;;;;;5163398;27;19918;-70
2022/02/17 08:36:43;;;;;;;;;;;12.60;57.70;;;;;;5163393;27;19911;-70
2022/02/17 08:39:09;;;;;;;;;;;12.70;58.20;;;;;;5163454;27;19915;-70
2022/02/17 08:41:35;;;;;;;;;;;12.90;58.30;;;;;;5163322;27;20241;-69
2022/02/17 08:44:01;;;;;;;;;;;13.10;57.80;;;;;;5163353;27;20247;-69
2022/02/17 08:46:26;;;;;;;;;;;13.20;58.00;;;;;;5163174;27;20161;-69
2022/02/17 08:48:52;;;;;;;;;;;13.30;57.60;;;;;;5162604;27;19915;-69
2022/02/17 08:51:19;;;;;;;;;;;13.30;58.00;;;;;;5162565;27;20082;-68
2022/02/17 08:53:45;;;;;;;;;;;13.30;58.30;;;;;;5163145;27;19911;-70
2022/02/17 08:56:10;;;;;;;;;;;13.40;58.60;;;;;;5163051;27;19918;-69
2022/02/17 08:58:36;;;;;;;;;;;13.40;58.30;;;;;;5163032;27;19983;-69
2022/02/17 09:01:02;;;;;;;;;;;13.50;57.90;;;;;;5144352;27;20305;-69
2022/02/17 09:03:27;;;;;;;;;;;13.40;58.30;;;;;;5162854;27;19911;-69
2022/02/17 09:05:53;;;;;;;;;;;13.30;58.00;;;;;;5162866;27;19918;-69
2022/02/17 09:08:19;;;;;;;;;;;13.30;57.90;;;;;;5162861;27;19976;-68
2022/02/17 09:10:44;;;;;;;;;;;13.30;58.10;;;;;;5162600;27;19965;-68
2022/02/17 09:13:11;;;;;;;;;;;13.30;57.90;;;;;;5162808;27;19915;-68
2022/02/17 09:15:36;;;;;;;;;;;13.40;57.80;;;;;;5162457;27;19903;-69
2022/02/17 09:18:02;;;;;;;;;;;13.40;57.60;;;;;;5162865;27;20225;-69
2022/02/17 09:20:29;;;;;;;;;;;13.40;57.90;;;;;;5162514;27;20231;-69
2022/02/17 09:22:55;;;;;;;;;;;13.40;57.80;;;;;;5162602;27;20422;-68
2022/02/17 09:25:20;;;;;;;;;;;13.40;57.10;;;;;;5162477;27;19911;-69
2022/02/17 09:27:46;;;;;;;;;;;13.40;56.90;;;;;;5162506;27;19941;-69
2022/02/17 09:30:12;;;;;;;;;;;13.20;56.80;;;;;;5162346;27;19907;-68
2022/02/17 09:32:37;;;;;;;;;;;13.30;58.40;;;;;;5162346;27;19982;-69
2022/02/17 09:35:03;;;;;;;;;;;13.40;58.20;;;;;;5162326;27;19911;-68
2022/02/17 09:37:29;;;;;;;;;;;13.30;57.10;;;;;;5162366;27;19974;-68
2022/02/17 09:39:55;;;;;;;;;;;13.30;58.20;;;;;;5162157;27;19919;-69
2022/02/17 09:42:20;;;;;;;;;;;13.40;58.80;;;;;;5162068;27;19910;-68
2022/02/17 09:44:46;;;;;;;;;;;13.50;58.60;;;;;;5162043;27;19903;-69
2022/02/17 09:47:12;;;;;;;;;;;13.60;58.60;;;;;;5161954;27;19907;-68
2022/02/17 09:49:41;;;;;;;;;;;13.70;58.30;;;;;;5161884;27;19950;-69
2022/02/17 09:52:08;;;;;;;;;;;13.70;58.30;;;;;;5161860;27;20092;-69
2022/02/17 09:54:34;;;;;;;;;;;13.70;58.30;;;;;;5161720;27;19903;-69
2022/02/17 09:57:01;;;;;;;;;;;13.80;59.00;;;;;;5143431;27;19911;-70
2022/02/17 09:59:28;;;;;;;;;;;13.80;58.80;;;;;;5161854;27;20077;-68
2022/02/17 10:02:04;;;;;;;;;;;13.80;59.70;;;;;;5161893;27;19915;-69
2022/02/17 10:04:31;;;;;;;;;;;13.90;59.60;;;;;;5161886;27;20111;-69
2022/02/17 10:06:57;;;;;;;;;;;13.90;60.40;;;;;;5161736;27;19910;-69
2022/02/17 10:09:35;;;;;;;;;;;13.90;61.30;;;;;;5161465;27;20521;-70
2022/02/17 10:12:01;;;;;;;;;;;14.00;60.30;;;;;;5161917;27;20173;-69
2022/02/17 10:14:27;;;;;;;;;;;14.00;60.20;;;;;;5162333;27;19919;-69
2022/02/17 10:16:55;;;;;;;;;;;14.00;60.00;;;;;;5161601;27;19939;-69
2022/02/17 10:19:22;;;;;;;;;;;14.00;60.40;;;;;;5161739;27;19974;-70
2022/02/17 10:21:47;;;;;;;;;;;14.00;60.30;;;;;;5161757;27;20215;-72
2022/02/17 10:24:32;;;;;;;;;;;14.00;61.00;;;;;;5161614;27;19912;-69
2022/02/17 10:27:01;;;;;;;;;;;14.00;60.50;;;;;;5161258;27;19911;-68
2022/02/17 10:29:27;;;;;;;;;;;13.90;59.40;;;;;;5161306;27;19922;-68
2022/02/17 10:32:01;;;;;;;;;;;14.00;59.90;;;;;;5161566;27;19911;-69
2022/02/17 10:34:27;;;;;;;;;;;14.10;60.00;;;;;;5161543;27;19911;-69
2022/02/17 10:36:53;;;;;;;;;;;14.20;59.50;;;;;;5161432;27;20180;-69
2022/02/17 10:39:22;;;;;;;;;;;14.40;59.10;;;;;;5161447;27;19949;-70
2022/02/17 10:41:55;;;;;;;;;;;14.60;58.70;;;;;;5161419;27;19911;-70
2022/02/17 10:44:29;;;;;;;;;;;14.70;58.40;;;;;;5161385;27;20251;-70
2022/02/17 10:46:55;;;;;;;;;;;14.80;58.30;;;;;;5161417;27;19919;-70
2022/02/17 10:49:21;;;;;;;;;;;14.90;58.60;;;;;;5161320;27;19977;-70
2022/02/17 10:51:48;;;;;;;;;;;15.00;58.40;;;;;;5161332;27;19911;-69
2022/02/17 10:54:21;;;;;;;;;;;15.10;58.20;;;;;;5161274;27;19918;-70
2022/02/17 10:56:51;;;;;;;;;;;15.10;58.60;;;;;;5161298;27;20258;-68
2022/02/17 11:02:02;;;;;;;;;;;15.20;59.20;;;;;;5161442;27;20382;-75
2022/02/17 11:04:28;;;;;;;;;;;15.20;58.70;;;;;;5142976;27;19918;-75
2022/02/17 11:06:53;;;;;;;;;;;15.30;58.90;;;;;;5143152;27;20165;-75
2022/02/17 11:09:19;;;;;;;;;;;15.20;59.20;;;;;;5142736;27;20011;-76
2022/02/17 11:11:49;;;;;;;;;;;15.20;59.20;;;;;;5161623;27;19918;-76
2022/02/17 11:14:33;;;;;;;;;;;15.20;59.40;;;;;;5161582;27;19911;-74
2022/02/17 11:16:59;;;;;;;;;;;15.30;59.30;;;;;;5161437;27;19910;-73
2022/02/17 11:19:25;;;;;;;;;;;15.30;59.20;;;;;;5161548;27;19903;-71
2022/02/17 11:21:50;;;;;;;;;;;15.30;59.30;;;;;;5142895;27;19903;-73
2022/02/17 11:24:16;;;;;;;;;;;15.30;59.60;;;;;;5161128;27;19911;-70
2022/02/17 11:26:42;;;;;;;;;;;15.40;59.60;;;;;;5160970;27;20463;-72
2022/02/17 11:29:22;;;;;;;;;;;15.40;59.30;;;;;;5160876;27;20223;-71
2022/02/17 11:31:58;;;;;;;;;;;15.50;59.20;;;;;;5160976;27;20455;-71
2022/02/17 11:34:37;;;;;;;;;;;15.40;59.30;;;;;;5160982;27;19955;-71
2022/02/17 11:37:32;;;;;;;;;;;15.50;59.60;;;;;;5142324;27;19986;-71
2022/02/17 11:39:59;;;;;;;;;;;15.60;59.70;;;;;;5139642;27;19918;-71
2022/02/17 11:42:29;;;;;;;;;;;15.60;59.10;;;;;;5164613;27;19934;-70
2022/02/17 11:45:11;;;;;;;;;;;15.60;59.20;;;;;;5164484;27;19909;-68
2022/02/17 11:47:55;;;;;;;;;;;15.60;59.50;;;;;;5146257;27;19919;-73
2022/02/17 11:50:40;;;;;;;;;;;15.60;59.80;;;;;;5164707;27;20218;-71
2022/02/17 11:53:21;;;;;;;;;;;15.70;59.80;;;;;;5145918;27;20214;-71
2022/02/17 11:55:47;;;;;;;;;;;15.70;59.60;;;;;;5164763;27;20522;-73
2022/02/17 11:58:31;;;;;;;;;;;15.70;59.50;;;;;;5146171;27;19911;-73
2022/02/17 12:00:57;;;;;;;;;;;15.70;59.90;;;;;;5164632;27;19976;-69
2022/02/17 12:03:41;;;;;;;;;;;15.70;60.00;;;;;;5164215;27;19911;-70
2022/02/17 12:06:25;;;;;;;;;;;15.80;59.40;;;;;;5164218;27;20276;-73
2022/02/17 12:08:54;;;;;;;;;;;15.80;59.20;;;;;;5164145;27;19943;-73
2022/02/17 12:11:27;;;;;;;;;;;15.80;59.50;;;;;;5164337;27;19930;-74
2022/02/17 12:13:53;;;;;;;;;;;15.80;59.90;;;;;;5164211;27;19915;-71
2022/02/17 12:16:34;;;;;;;;;;;15.90;59.50;;;;;;5164124;27;19967;-72
2022/02/17 12:19:16;;;;;;;;;;;15.90;59.30;;;;;;5164541;27;19911;-77
2022/02/17 12:21:42;;;;;;;;;;;15.90;59.60;;;;;;5146335;27;20574;-73
2022/02/17 12:24:13;;;;;;;;;;;15.80;59.80;;;;;;5164143;27;19911;-73
2022/02/17 12:26:43;;;;;;;;;;;15.80;59.80;;;;;;5164003;27;20096;-69
2022/02/17 12:29:38;;;;;;;;;;;15.90;59.60;;;;;;5144979;27;20057;-70
2022/02/17 12:32:05;;;;;;;;;;;16.00;60.90;;;;;;5141133;27;19932;-69
2022/02/17 12:34:31;;;;;;;;;;;16.10;60.90;;;;;;5163722;27;19903;-69
2022/02/17 12:36:57;;;;;;;;;;;16.10;60.40;;;;;;5163608;27;19911;-70
2022/02/17 12:39:30;;;;;;;;;;;16.20;60.20;;;;;;5163595;27;19918;-70
2022/02/17 12:42:04;;;;;;;;;;;16.30;60.20;;;;;;5163440;27;19910;-71
2022/02/17 12:44:31;;;;;;;;;;;16.40;60.60;;;;;;5163452;27;19903;-71
2022/02/17 12:46:57;;;;;;;;;;;16.30;60.70;;;;;;5163356;27;19918;-71
2022/02/17 12:49:23;;;;;;;;;;;16.40;60.80;;;;;;5163251;27;19956;-70
2022/02/17 12:51:49;;;;;;;;;;;16.40;60.60;;;;;;5162821;27;19911;-71
2022/02/17 12:54:15;;;;;;;;;;;16.50;59.70;;;;;;5163252;27;19911;-71
2022/02/17 12:56:41;;;;;;;;;;;16.50;59.50;;;;;;5144958;27;19903;-70
2022/02/17 12:59:09;;;;;;;;;;;16.50;60.00;;;;;;5163235;27;19948;-70
2022/02/17 13:01:39;;;;;;;;;;;16.50;60.40;;;;;;5163324;27;20111;-70
2022/02/17 13:04:05;;;;;;;;;;;16.50;60.10;;;;;;5163016;27;19981;-70
2022/02/17 13:06:31;;;;;;;;;;;16.60;60.50;;;;;;5163015;27;19948;-71
2022/02/17 13:08:56;;;;;;;;;;;16.60;60.90;;;;;;5162987;27;19907;-68
2022/02/17 13:11:24;;;;;;;;;;;16.50;62.00;;;;;;5162912;27;20002;-72
2022/02/17 13:14:00;;;;;;;;;;;16.40;63.20;;;;;;5163060;27;20409;-71
2022/02/17 13:16:25;;;;;;;;;;;16.20;64.30;;;;;;5163044;27;19911;-73
2022/02/17 13:18:51;;;;;;;;;;;16.10;65.20;;;;;;5144770;27;19915;-72
2022/02/17 13:21:18;;;;;;;;;;;16.30;67.20;;;;;;5162802;27;19918;-67
2022/02/17 13:23:45;;;;;;;;;;;16.20;66.80;;;;;;5162716;27;19979;-67
2022/02/17 13:26:29;;;;;;;;;;;16.10;66.00;;;;;;5162685;27;19911;-67
2022/02/17 13:28:55;;;;;;;;;;;16.10;66.70;;;;;;5162547;27;19917;-66
2022/02/17 13:31:21;;;;;;;;;;;16.10;66.40;;;;;;5143855;27;20104;-68
2022/02/17 13:33:47;;;;;;;;;;;16.10;68.40;;;;;;5144024;27;19911;-66
2022/02/17 13:36:24;;;;;;;;;;;16.00;68.60;;;;;;5162114;27;19917;-67
2022/02/17 13:39:07;;;;;;;;;;;16.00;69.00;;;;;;5161981;27;20120;-69
2022/02/17 13:42:02;;;;;;;336.83;52.30;;;16.00;65.60;;;;;;4993771;28;20420;-65
2022/02/17 13:44:30;;;;;;;342.38;51.97;;;15.90;62.90;;;;;;4993808;28;20265;-65
2022/02/17 13:46:56;;;;;;;333.80;49.60;;;15.90;62.90;;;;;;4994082;28;20030;-65
2022/02/17 13:49:22;;;;;;;329.30;54.95;;;15.90;63.00;;;;;;4994029;28;20305;-65
2022/02/17 13:51:49;;;;;;;343.17;57.50;;;15.90;63.30;;;;;;4993984;28;20269;-64
2022/02/17 13:54:15;;;;;;;351.25;54.45;;;15.80;63.50;;;;;;4993886;28;20029;-65
2022/02/17 13:56:41;;;;;;;323.10;50.42;;;15.70;63.70;;;;;;4993987;28;20027;-64
2022/02/17 13:59:08;;;;;;;352.63;56.67;;;15.70;64.40;;;;;;4993961;28;20038;-64
2022/02/17 14:01:45;;;;;;;341.85;53.88;;;15.60;64.80;;;;;;4993853;28;20093;-65
2022/02/17 14:04:28;;;;;;;322.70;51.10;;;15.90;65.30;;;;;;4993837;28;20019;-65
2022/02/17 14:07:01;;;;;;;325.63;52.08;;;16.50;63.30;;;;;;4993780;28;20019;-64
2022/02/17 14:09:28;;;;;;;322.55;51.75;;;16.90;62.20;;;;;;4993833;28;20326;-65
2022/02/17 14:11:54;;;;;;;324.60;50.40;;;16.70;63.30;;;;;;4993702;28;20230;-64
2022/02/17 14:14:20;;;;;;;338.35;49.20;;;16.60;63.80;;;;;;4993347;28;20030;-64
2022/02/17 14:16:46;;;;;;;313.55;51.30;;;16.50;64.60;;;;;;4993596;28;20031;-63